TimeMDT,TemperatureF,Dew PointF,Humidity,Sea Level PressureIn,VisibilityMPH,Wind Direction,Wind SpeedMPH,Gust SpeedMPH,PrecipitationIn,Events,Conditions,WindDirDegrees,DateUTC
12:53 AM,41.0,21.0,45,29.67,10.0,NW,32.2,39.1,N/A,,Partly Cloudy,320,2012-10-17 06:53:00
1:53 AM,39.9,16.0,38,29.74,10.0,WNW,26.5,41.4,N/A,,Clear,290,2012-10-17 07:53:00
2:53 AM,37.0,18.0,46,29.78,10.0,WNW,15.0,-,N/A,,Clear,290,2012-10-17 08:53:00
3:53 AM,37.0,15.1,41,29.78,10.0,WNW,19.6,28.8,N/A,,Clear,300,2012-10-17 09:53:00
4:53 AM,37.0,14.0,39,29.87,10.0,WNW,27.6,39.1,N/A,,Clear,300,2012-10-17 10:53:00
5:53 AM,37.0,12.9,37,29.89,10.0,NW,28.8,36.8,N/A,,Clear,310,2012-10-17 11:53:00
6:53 AM,36.0,12.9,39,29.91,10.0,WNW,24.2,36.8,N/A,,Clear,300,2012-10-17 12:53:00
7:53 AM,36.0,14.0,41,29.95,10.0,WNW,25.3,35.7,N/A,,Clear,300,2012-10-17 13:53:00
8:53 AM,39.0,12.9,34,29.94,10.0,WNW,21.9,29.9,N/A,,Clear,290,2012-10-17 14:53:00
9:53 AM,42.1,12.9,31,29.93,10.0,NW,32.2,40.3,N/A,,Clear,310,2012-10-17 15:53:00
10:53 AM,43.0,12.9,30,29.92,10.0,WNW,33.4,43.7,N/A,,Clear,300,2012-10-17 16:53:00
11:53 AM,46.9,12.9,25,29.88,10.0,WNW,31.1,42.6,N/A,,Clear,300,2012-10-17 17:53:00
12:53 PM,48.9,7.0,18,29.89,10.0,NW,35.7,46.0,N/A,,Clear,310,2012-10-17 18:53:00
1:53 PM,50.0,6.1,17,29.88,10.0,WNW,34.5,47.2,N/A,,Clear,300,2012-10-17 19:53:00
2:53 PM,50.0,7.0,18,29.88,10.0,WNW,32.2,46.0,N/A,,Clear,300,2012-10-17 20:53:00
3:53 PM,51.1,8.1,18,29.89,10.0,WNW,35.7,44.9,N/A,,Clear,300,2012-10-17 21:53:00
4:53 PM,50.0,6.1,17,29.90,10.0,NW,28.8,42.6,N/A,,Clear,310,2012-10-17 22:53:00
5:53 PM,48.0,8.1,20,29.92,10.0,NW,28.8,42.6,N/A,,Clear,310,2012-10-17 23:53:00
6:53 PM,45.0,9.0,23,29.97,10.0,NW,31.1,40.3,N/A,,Clear,310,2012-10-18 00:53:00
7:53 PM,42.1,10.9,28,30.03,10.0,NNW,16.1,-,N/A,,Clear,330,2012-10-18 01:53:00
8:53 PM,36.0,10.0,34,30.08,10.0,NW,8.1,-,N/A,,Clear,320,2012-10-18 02:53:00
9:53 PM,37.0,10.9,34,30.09,10.0,NE,5.8,-,N/A,,Clear,50,2012-10-18 03:53:00
10:53 PM,37.0,10.9,34,30.11,10.0,NNE,11.5,-,N/A,,Clear,30,2012-10-18 04:53:00
11:53 PM,35.1,10.9,37,30.12,10.0,NE,8.1,-,N/A,,Clear,40,2012-10-18 05:53:00